createdAt,value
2018-04-08T00:01:19.263Z,17.97
2018-04-08T00:03:47.682Z,16.77
2018-04-08T00:06:16.126Z,17.33
2018-04-08T00:08:44.608Z,16.67
2018-04-08T00:11:13.008Z,17.57
2018-04-08T00:13:41.413Z,18.80
2018-04-08T00:16:09.861Z,17.53
2018-04-08T00:18:38.316Z,16.83
2018-04-08T00:21:06.756Z,14.40
2018-04-08T00:23:35.207Z,16.97
2018-04-08T00:26:03.628Z,16.03
2018-04-08T00:28:32.081Z,16.10
2018-04-08T00:31:00.528Z,16.20
2018-04-08T00:33:28.927Z,15.40
2018-04-08T00:35:57.377Z,16.10
2018-04-08T00:38:25.849Z,15.90
2018-04-08T00:40:54.266Z,14.63
2018-04-08T00:43:22.715Z,15.90
2018-04-08T00:45:51.214Z,16.33
2018-04-08T00:48:19.637Z,14.00
2018-04-08T00:50:48.055Z,14.50
2018-04-08T00:53:16.590Z,15.27
2018-04-08T00:55:44.972Z,14.27
2018-04-08T00:58:13.130Z,14.40
2018-04-08T01:00:41.368Z,15.03
2018-04-08T01:03:09.478Z,15.40
2018-04-08T01:05:37.649Z,13.97
2018-04-08T01:08:05.880Z,14.97
2018-04-08T01:10:34.041Z,14.60
2018-04-08T01:13:02.565Z,14.80
2018-04-08T01:15:31.028Z,15.27
2018-04-08T01:17:59.178Z,15.23
2018-04-08T01:20:27.621Z,15.60
2018-04-08T01:22:56.097Z,16.13
2018-04-08T01:25:24.484Z,16.13
2018-04-08T01:27:52.936Z,14.83
2018-04-08T01:30:21.398Z,15.30
2018-04-08T01:32:49.824Z,15.90
2018-04-08T01:35:18.360Z,14.90
2018-04-08T01:37:46.738Z,16.50
2018-04-08T01:40:15.194Z,16.17
2018-04-08T01:42:43.669Z,15.30
2018-04-08T01:45:12.125Z,15.93
2018-04-08T01:47:40.562Z,15.47
2018-04-08T01:50:09.061Z,16.20
2018-04-08T01:52:37.456Z,16.43
2018-04-08T01:55:05.841Z,16.33
2018-04-08T01:57:34.224Z,17.63
2018-04-08T02:00:02.697Z,17.73
2018-04-08T02:02:31.146Z,17.30
2018-04-08T02:04:59.563Z,18.57
2018-04-08T02:07:28.022Z,16.60
2018-04-08T02:09:56.440Z,17.87
2018-04-08T02:12:24.866Z,17.60
2018-04-08T02:14:53.305Z,16.73
2018-04-08T02:17:21.753Z,18.63
2018-04-08T02:19:50.142Z,18.27
2018-04-08T02:22:18.572Z,17.97
2018-04-08T02:24:47.060Z,19.97
2018-04-08T02:27:15.496Z,17.93
2018-04-08T02:29:43.990Z,18.30
2018-04-08T02:32:12.404Z,18.27
2018-04-08T02:34:40.851Z,19.03
2018-04-08T02:37:09.472Z,17.83
2018-04-08T02:39:37.987Z,17.60
2018-04-08T02:42:06.435Z,17.90
2018-04-08T02:44:34.817Z,16.90
2018-04-08T02:47:03.249Z,16.77
2018-04-08T02:49:31.669Z,16.77
2018-04-08T02:52:00.133Z,17.20
2018-04-08T02:54:28.678Z,16.77
2018-04-08T02:56:57.184Z,17.27
2018-04-08T02:59:25.580Z,16.33
2018-04-08T03:01:54.137Z,16.33
2018-04-08T03:04:22.559Z,18.00
2018-04-08T03:06:51.019Z,17.13
2018-04-08T03:09:19.490Z,17.40
2018-04-08T03:11:47.876Z,18.67
2018-04-08T03:14:16.275Z,17.83
2018-04-08T03:16:44.695Z,17.27
2018-04-08T03:19:13.091Z,16.50
2018-04-08T03:21:41.537Z,17.60
2018-04-08T03:24:09.944Z,17.20
2018-04-08T03:26:38.397Z,16.77
2018-04-08T03:29:06.832Z,19.57
2018-04-08T03:31:35.310Z,18.47
2018-04-08T03:34:03.710Z,17.10
2018-04-08T03:36:32.320Z,19.37
2018-04-08T03:39:00.768Z,20.73
2018-04-08T03:41:29.220Z,19.53
2018-04-08T03:43:57.873Z,19.07
2018-04-08T03:46:26.281Z,17.93
2018-04-08T03:48:54.755Z,20.30
2018-04-08T03:51:23.224Z,20.47
2018-04-08T03:53:51.648Z,18.27
2018-04-08T03:56:20.100Z,18.47
2018-04-08T03:58:48.499Z,17.67
2018-04-08T04:01:16.923Z,20.57
2018-04-08T04:03:45.353Z,20.87
2018-04-08T04:06:13.797Z,18.57
2018-04-08T04:08:42.253Z,19.40
2018-04-08T04:11:10.763Z,20.33
2018-04-08T04:13:39.221Z,18.90
2018-04-08T04:16:07.656Z,19.00
2018-04-08T04:18:47.882Z,20.03
2018-04-08T04:24:39.354Z,19.23
2018-04-08T04:27:07.735Z,17.97
2018-04-08T04:29:36.194Z,18.57
2018-04-08T04:32:04.605Z,20.73
2018-04-08T04:34:33.085Z,18.87
2018-04-08T04:37:01.532Z,17.90
2018-04-08T04:39:29.951Z,18.20
2018-04-08T04:41:58.472Z,19.40
2018-04-08T04:44:26.912Z,19.10
2018-04-08T04:46:55.297Z,19.10
2018-04-08T04:49:23.717Z,21.10
2018-04-08T04:51:52.122Z,23.47
2018-04-08T04:54:20.578Z,20.00
2018-04-08T04:56:49.010Z,21.53
2018-04-08T04:59:17.384Z,22.83
2018-04-08T05:01:45.832Z,23.77
2018-04-08T05:04:14.377Z,23.43
2018-04-08T05:06:42.828Z,20.87
2018-04-08T05:09:11.233Z,23.93
2018-04-08T05:11:39.661Z,20.20
2018-04-08T05:14:08.093Z,18.30
2018-04-08T05:16:36.478Z,19.13
2018-04-08T05:19:04.929Z,19.77
2018-04-08T05:21:33.329Z,19.03
2018-04-08T05:24:01.912Z,18.43
2018-04-08T05:26:30.330Z,17.60
2018-04-08T05:28:58.712Z,18.53
2018-04-08T05:31:27.280Z,17.40
2018-04-08T05:33:55.739Z,17.63
2018-04-08T05:36:24.215Z,18.97
2018-04-08T05:38:52.608Z,23.40
2018-04-08T05:41:21.097Z,19.70
2018-04-08T05:43:49.500Z,20.77
2018-04-08T05:46:17.984Z,19.90
2018-04-08T05:48:46.435Z,23.53
2018-04-08T05:51:14.923Z,23.00
2018-04-08T05:53:43.439Z,23.97
2018-04-08T05:56:11.861Z,22.97
2018-04-08T05:58:40.300Z,22.50
2018-04-08T06:01:08.702Z,21.63
2018-04-08T06:03:37.175Z,19.53
2018-04-08T06:06:05.585Z,20.07
2018-04-08T06:08:33.972Z,19.17
2018-04-08T06:11:02.454Z,19.30
2018-04-08T06:13:30.856Z,21.07
2018-04-08T06:15:59.296Z,19.67
2018-04-08T06:18:27.760Z,18.17
2018-04-08T06:20:56.218Z,19.60
2018-04-08T06:23:24.661Z,20.77
2018-04-08T06:25:53.096Z,21.13
2018-04-08T06:28:21.545Z,21.07
2018-04-08T06:30:49.949Z,21.87
2018-04-08T06:33:18.379Z,21.23
2018-04-08T06:35:46.869Z,21.43
2018-04-08T06:38:15.356Z,22.53
2018-04-08T06:40:43.889Z,23.27
2018-04-08T06:43:12.400Z,21.07
2018-04-08T06:45:40.924Z,22.30
2018-04-08T06:48:09.390Z,21.67
2018-04-08T06:50:37.855Z,20.43
2018-04-08T06:53:06.294Z,21.63
2018-04-08T06:55:34.947Z,18.50
2018-04-08T06:58:03.399Z,15.80
2018-04-08T07:00:31.821Z,16.17
2018-04-08T07:03:00.228Z,14.77
2018-04-08T07:05:28.702Z,15.07
2018-04-08T07:07:57.087Z,15.27
2018-04-08T07:10:25.521Z,16.33
2018-04-08T07:12:54.056Z,15.77
2018-04-08T07:15:22.479Z,14.17
2018-04-08T07:17:50.953Z,13.80
2018-04-08T07:20:19.382Z,12.20
2018-04-08T07:22:47.848Z,10.37
2018-04-08T07:25:16.257Z,10.07
2018-04-08T07:27:44.665Z,10.23
2018-04-08T07:30:13.180Z,10.70
2018-04-08T07:32:41.695Z,10.37
2018-04-08T07:35:10.062Z,10.00
2018-04-08T07:37:38.516Z,10.03
2018-04-08T07:40:06.928Z,9.03
2018-04-08T07:42:35.385Z,7.50
2018-04-08T07:45:03.805Z,7.23
2018-04-08T07:47:32.239Z,7.67
2018-04-08T07:50:00.740Z,8.37
2018-04-08T07:52:29.144Z,8.30
2018-04-08T07:54:57.596Z,7.63
2018-04-08T07:57:25.985Z,8.27
2018-04-08T07:59:54.476Z,8.17
2018-04-08T08:02:22.899Z,9.10
2018-04-08T08:04:51.337Z,7.53
2018-04-08T08:07:19.730Z,7.10
2018-04-08T08:09:48.169Z,7.43
2018-04-08T08:12:16.598Z,8.40
2018-04-08T08:14:45.050Z,7.37
2018-04-08T08:17:13.445Z,7.17
2018-04-08T08:19:41.868Z,6.83
2018-04-08T08:22:10.302Z,7.33
2018-04-08T08:24:38.692Z,6.27
2018-04-08T08:27:07.074Z,7.13
2018-04-08T08:29:35.521Z,6.60
2018-04-08T08:32:03.916Z,5.33
2018-04-08T08:34:32.297Z,5.47
2018-04-08T08:37:00.740Z,5.63
2018-04-08T08:39:29.179Z,5.10
2018-04-08T08:41:57.613Z,4.13
2018-04-08T08:44:26.029Z,5.10
2018-04-08T08:46:54.470Z,5.30
2018-04-08T08:49:22.915Z,5.53
2018-04-08T08:51:51.301Z,3.80
2018-04-08T08:54:19.754Z,4.57
2018-04-08T08:56:48.157Z,5.07
2018-04-08T08:59:16.552Z,6.10
2018-04-08T09:01:45.011Z,5.50
2018-04-08T09:04:13.388Z,5.30
2018-04-08T09:06:41.903Z,5.57
2018-04-08T09:09:10.256Z,4.87
2018-04-08T09:11:38.679Z,4.90
2018-04-08T09:14:07.109Z,4.80
2018-04-08T09:16:35.533Z,4.80
2018-04-08T09:19:19.835Z,5.57
2018-04-08T09:21:53.641Z,4.90
2018-04-08T09:24:33.988Z,5.60
2018-04-08T09:27:02.384Z,5.00
2018-04-08T09:29:30.844Z,5.37
2018-04-08T09:31:59.370Z,4.90
2018-04-08T09:34:27.781Z,4.10
2018-04-08T09:36:56.334Z,4.70
2018-04-08T09:39:24.807Z,4.97
2018-04-08T09:41:53.200Z,4.37
2018-04-08T09:44:21.613Z,4.10
2018-04-08T09:46:50.025Z,3.80
2018-04-08T09:49:18.409Z,3.87
2018-04-08T09:51:46.840Z,4.17
2018-04-08T09:54:15.434Z,4.20
2018-04-08T09:56:43.869Z,4.20
2018-04-08T09:59:12.244Z,4.17
2018-04-08T10:01:55.617Z,4.03
2018-04-08T10:04:24.053Z,3.70
2018-04-08T10:06:52.501Z,3.70
2018-04-08T10:09:20.910Z,4.20
2018-04-08T10:11:49.390Z,4.20
2018-04-08T10:14:17.825Z,3.50
2018-04-08T10:16:46.198Z,4.03
2018-04-08T10:19:14.628Z,3.80
2018-04-08T10:21:43.030Z,3.53
2018-04-08T10:24:11.467Z,3.90
2018-04-08T10:26:39.873Z,3.80
2018-04-08T10:29:08.352Z,3.47
2018-04-08T10:31:36.731Z,4.10
2018-04-08T10:34:05.215Z,2.80
2018-04-08T10:36:33.649Z,3.50
2018-04-08T10:39:02.049Z,3.53
2018-04-08T10:41:30.500Z,3.40
2018-04-08T10:43:58.907Z,3.40
2018-04-08T10:46:27.322Z,3.60
2018-04-08T10:48:55.824Z,3.03
2018-04-08T10:51:24.315Z,3.80
2018-04-08T10:53:52.760Z,3.37
2018-04-08T10:56:21.449Z,2.80
2018-04-08T10:58:49.831Z,4.73
2018-04-08T11:01:18.316Z,4.53
2018-04-08T11:03:46.818Z,3.50
2018-04-08T11:06:15.456Z,3.50
2018-04-08T11:08:43.848Z,4.00
2018-04-08T11:11:12.325Z,3.47
2018-04-08T11:13:40.797Z,3.67
2018-04-08T11:16:09.220Z,3.50
2018-04-08T11:18:37.637Z,3.80
2018-04-08T11:21:06.089Z,3.70
2018-04-08T11:23:34.522Z,4.17
2018-04-08T11:26:02.925Z,3.80
2018-04-08T11:28:31.368Z,3.60
2018-04-08T11:30:59.750Z,3.80
2018-04-08T11:33:28.184Z,4.23
2018-04-08T11:35:56.608Z,4.00
2018-04-08T11:38:25.061Z,4.20
2018-04-08T11:40:53.436Z,4.20
2018-04-08T11:43:21.823Z,4.53
2018-04-08T11:45:50.271Z,4.53
2018-04-08T11:48:18.725Z,3.97
2018-04-08T11:50:47.100Z,3.27
2018-04-08T11:53:15.520Z,3.37
2018-04-08T11:55:43.941Z,3.87
2018-04-08T11:58:12.330Z,3.93
2018-04-08T12:00:40.812Z,3.73
2018-04-08T12:03:09.227Z,4.18
2018-04-08T12:05:37.687Z,4.22
2018-04-08T12:08:06.075Z,3.25
2018-04-08T12:10:34.572Z,4.43
2018-04-08T12:13:02.958Z,4.57
2018-04-08T12:15:31.405Z,4.15
2018-04-08T12:17:59.954Z,4.12
2018-04-08T12:20:28.420Z,4.40
2018-04-08T12:22:56.829Z,4.47
2018-04-08T12:25:25.304Z,3.78
2018-04-08T12:27:53.685Z,5.82
2018-04-08T12:30:22.065Z,3.72
2018-04-08T12:32:50.497Z,4.47
2018-04-08T12:35:19.009Z,4.15
2018-04-08T12:37:47.464Z,4.30
2018-04-08T12:40:15.913Z,4.45
2018-04-08T12:42:44.344Z,4.45
2018-04-08T12:45:12.774Z,4.87
2018-04-08T12:47:41.218Z,4.20
2018-04-08T12:50:09.604Z,4.62
2018-04-08T12:52:38.021Z,4.20
2018-04-08T12:55:06.401Z,4.60
2018-04-08T12:57:34.833Z,3.83
2018-04-08T13:00:03.298Z,4.25
2018-04-08T13:02:31.773Z,4.50
2018-04-08T13:05:00.205Z,4.28
2018-04-08T13:07:28.632Z,4.50
2018-04-08T13:09:57.098Z,4.70
2018-04-08T13:12:25.513Z,5.18
2018-04-08T13:14:53.914Z,4.93
2018-04-08T13:17:22.301Z,4.50
2018-04-08T13:19:50.721Z,3.60
2018-04-08T13:22:19.100Z,4.75
2018-04-08T13:24:47.529Z,4.78
2018-04-08T13:27:15.973Z,5.18
2018-04-08T13:29:44.353Z,4.85
2018-04-08T13:32:12.768Z,4.57
2018-04-08T13:34:41.172Z,5.22
2018-04-08T13:37:09.634Z,5.82
2018-04-08T13:39:38.032Z,6.30
2018-04-08T13:42:06.430Z,4.65
2018-04-08T13:44:34.872Z,5.45
2018-04-08T13:47:03.274Z,5.40
2018-04-08T13:49:31.705Z,4.72
2018-04-08T13:52:00.138Z,4.70
2018-04-08T13:54:28.561Z,5.30
2018-04-08T13:56:57.010Z,5.55
2018-04-08T13:59:25.424Z,4.50
2018-04-08T14:01:53.925Z,4.35
2018-04-08T14:04:22.364Z,4.22
2018-04-08T14:06:50.753Z,4.50
2018-04-08T14:09:19.172Z,4.10
2018-04-08T14:11:47.626Z,4.22
2018-04-08T14:14:15.996Z,4.47
2018-04-08T14:16:44.423Z,4.78
2018-04-08T14:19:12.846Z,4.55
2018-04-08T14:21:41.268Z,5.05
2018-04-08T14:24:09.797Z,5.47
2018-04-08T14:26:38.249Z,5.18
2018-04-08T14:29:06.695Z,5.37
2018-04-08T14:31:35.858Z,5.25
2018-04-08T14:34:05.341Z,5.22
2018-04-08T14:36:33.857Z,5.32
2018-04-08T14:39:02.313Z,5.70
2018-04-08T14:41:30.808Z,6.00
2018-04-08T14:43:59.239Z,5.87
2018-04-08T14:46:27.651Z,5.62
2018-04-08T14:48:57.093Z,5.93
2018-04-08T14:51:25.515Z,5.78
2018-04-08T14:53:55.186Z,5.72
2018-04-08T14:56:23.581Z,6.12
2018-04-08T14:58:51.990Z,5.40
2018-04-08T15:01:21.089Z,5.68
2018-04-08T15:03:49.477Z,6.20
2018-04-08T15:06:17.870Z,6.45
2018-04-08T15:08:46.333Z,6.25
2018-04-08T15:11:14.783Z,6.50
2018-04-08T15:13:43.200Z,6.57
2018-04-08T15:16:11.638Z,7.07
2018-04-08T15:18:40.066Z,6.43
2018-04-08T15:21:08.456Z,6.37
2018-04-08T15:23:37.313Z,5.65
2018-04-08T15:26:05.706Z,6.20
2018-04-08T15:28:34.084Z,6.53
2018-04-08T15:31:02.860Z,6.32
2018-04-08T15:33:31.297Z,6.15
2018-04-08T15:35:59.692Z,6.37
2018-04-08T15:38:28.912Z,6.47
2018-04-08T15:40:57.305Z,6.25
2018-04-08T15:43:25.694Z,6.97
2018-04-08T15:45:54.128Z,6.90
2018-04-08T15:48:22.577Z,7.43
2018-04-08T15:50:50.985Z,6.68
2018-04-08T15:53:19.456Z,7.20
2018-04-08T15:55:47.985Z,7.12
2018-04-08T15:58:16.376Z,6.90
2018-04-08T16:00:44.838Z,7.78
2018-04-08T16:03:13.287Z,6.07
2018-04-08T16:05:41.855Z,5.95
2018-04-08T16:08:10.253Z,6.82
2018-04-08T16:10:38.730Z,6.60
2018-04-08T16:13:07.354Z,7.30
2018-04-08T16:15:35.766Z,6.60
2018-04-08T16:18:04.232Z,6.47
2018-04-08T16:20:32.685Z,6.50
2018-04-08T16:23:01.134Z,6.53
2018-04-08T16:25:29.596Z,6.30
2018-04-08T16:27:58.019Z,7.20
2018-04-08T16:30:26.408Z,6.53
2018-04-08T16:32:54.931Z,6.70
2018-04-08T16:35:23.373Z,6.40
2018-04-08T16:37:51.816Z,6.80
2018-04-08T16:40:20.263Z,6.07
2018-04-08T16:42:48.683Z,6.13
2018-04-08T16:45:17.083Z,6.70
2018-04-08T16:47:45.544Z,7.20
2018-04-08T16:50:13.920Z,6.60
2018-04-08T16:52:42.354Z,6.47
2018-04-08T16:55:10.759Z,6.90
2018-04-08T16:57:39.226Z,6.07
2018-04-08T17:00:07.630Z,7.73
2018-04-08T17:02:36.049Z,7.10
2018-04-08T17:05:04.485Z,6.40
2018-04-08T17:07:33.028Z,5.87
2018-04-08T17:10:01.483Z,6.00
2018-04-08T17:12:29.884Z,5.97
2018-04-08T17:14:58.263Z,7.10
2018-04-08T17:17:26.762Z,6.27
2018-04-08T17:19:55.210Z,6.57
2018-04-08T17:22:23.606Z,6.37
2018-04-08T17:24:52.059Z,6.13
2018-04-08T17:27:20.695Z,6.27
2018-04-08T17:29:49.145Z,5.67
2018-04-08T17:32:17.648Z,5.67
2018-04-08T17:34:46.044Z,6.30
2018-04-08T17:37:14.476Z,6.50
2018-04-08T17:39:42.949Z,6.77
2018-04-08T17:42:11.422Z,6.47
2018-04-08T17:44:39.885Z,6.77
2018-04-08T17:47:08.280Z,7.07
2018-04-08T17:49:36.863Z,7.10
2018-04-08T17:52:05.339Z,7.30
2018-04-08T17:54:33.769Z,6.80
2018-04-08T17:57:02.225Z,6.20
2018-04-08T17:59:30.610Z,7.20
2018-04-08T18:01:59.056Z,6.70
2018-04-08T18:04:27.513Z,7.90
2018-04-08T18:06:56.382Z,7.47
2018-04-08T18:09:26.327Z,8.77
2018-04-08T18:11:54.819Z,7.47
2018-04-08T18:14:23.263Z,8.97
2018-04-08T18:16:51.664Z,7.83
2018-04-08T18:19:20.073Z,6.27
2018-04-08T18:21:48.544Z,6.20
2018-04-08T18:24:16.942Z,6.40
2018-04-08T18:26:45.388Z,5.60
2018-04-08T18:29:13.802Z,7.07
2018-04-08T18:31:42.239Z,6.10
2018-04-08T18:34:10.629Z,6.17
2018-04-08T18:36:39.131Z,5.73
2018-04-08T18:39:07.753Z,7.17
2018-04-08T18:41:36.212Z,6.53
2018-04-08T18:44:04.660Z,6.40
2018-04-08T18:46:33.084Z,6.70
2018-04-08T18:49:01.539Z,7.10
2018-04-08T18:51:30.008Z,5.87
2018-04-08T18:53:58.456Z,6.40
2018-04-08T18:56:26.943Z,5.97
2018-04-08T18:58:55.542Z,6.73
2018-04-08T19:01:23.980Z,6.70
2018-04-08T19:03:52.389Z,6.97
2018-04-08T19:06:20.857Z,5.87
2018-04-08T19:08:49.527Z,6.90
2018-04-08T19:11:18.121Z,5.90
2018-04-08T19:13:46.777Z,6.00
2018-04-08T19:16:15.239Z,6.13
2018-04-08T19:18:43.665Z,6.70
2018-04-08T19:21:12.094Z,5.83
2018-04-08T19:23:40.589Z,5.63
2018-04-08T19:26:09.058Z,5.23
2018-04-08T19:28:37.462Z,5.73
2018-04-08T19:31:05.902Z,5.80
2018-04-08T19:33:34.329Z,5.57
2018-04-08T19:36:02.769Z,5.50
2018-04-08T19:38:31.174Z,5.50
2018-04-08T19:40:59.623Z,6.27
2018-04-08T19:43:28.028Z,5.60
2018-04-08T19:45:56.425Z,5.27
2018-04-08T19:48:24.892Z,5.90
2018-04-08T19:50:53.305Z,6.13
2018-04-08T19:53:21.762Z,6.20
2018-04-08T19:55:50.121Z,6.10
2018-04-08T19:58:18.554Z,6.23
2018-04-08T20:00:47.298Z,6.33
2018-04-08T20:03:15.759Z,6.10
2018-04-08T20:05:44.166Z,6.00
2018-04-08T20:08:12.591Z,6.20
2018-04-08T20:10:41.021Z,6.60
2018-04-08T20:13:09.456Z,7.90
2018-04-08T20:15:37.908Z,6.07
2018-04-08T20:18:06.332Z,6.30
2018-04-08T20:20:34.748Z,5.97
2018-04-08T20:23:03.168Z,6.27
2018-04-08T20:25:31.605Z,5.27
2018-04-08T20:28:00.064Z,5.87
2018-04-08T20:30:28.458Z,6.53
2018-04-08T20:32:56.975Z,5.50
2018-04-08T20:35:25.381Z,6.33
2018-04-08T20:37:53.830Z,6.20
2018-04-08T20:40:22.319Z,5.33
2018-04-08T20:42:50.759Z,4.93
2018-04-08T20:45:19.139Z,5.40
2018-04-08T20:47:47.601Z,5.13
2018-04-08T20:50:15.986Z,4.80
2018-04-08T20:52:44.390Z,5.63
2018-04-08T20:55:12.844Z,5.83
2018-04-08T20:57:41.240Z,5.00
2018-04-08T21:00:09.754Z,5.00
2018-04-08T21:02:38.153Z,5.10
2018-04-08T21:05:06.590Z,4.37
2018-04-08T21:07:34.961Z,4.53
2018-04-08T21:10:03.368Z,4.60
2018-04-08T21:12:31.840Z,4.33
2018-04-08T21:15:00.221Z,4.13
2018-04-08T21:17:28.699Z,4.37
2018-04-08T21:19:57.105Z,4.97
2018-04-08T21:22:25.488Z,4.53
2018-04-08T21:24:53.924Z,4.13
2018-04-08T21:27:22.341Z,4.50
2018-04-08T21:29:50.780Z,4.63
2018-04-08T21:32:19.281Z,4.17
2018-04-08T21:34:47.768Z,4.33
2018-04-08T21:37:16.370Z,5.13
2018-04-08T21:39:44.794Z,4.40
2018-04-08T21:42:13.177Z,4.63
2018-04-08T21:44:41.676Z,4.60
2018-04-08T21:47:10.128Z,4.87
2018-04-08T21:49:38.585Z,4.50
2018-04-08T21:52:07.002Z,4.60
2018-04-08T21:54:35.383Z,5.20
2018-04-08T21:57:03.840Z,5.10
2018-04-08T21:59:32.221Z,5.03
2018-04-08T22:02:00.634Z,3.80
2018-04-08T22:04:29.036Z,3.80
2018-04-08T22:06:57.457Z,4.40
2018-04-08T22:09:25.895Z,4.17
2018-04-08T22:11:54.308Z,4.50
2018-04-08T22:14:22.706Z,4.40
2018-04-08T22:16:51.162Z,4.03
2018-04-08T22:19:19.626Z,4.87
2018-04-08T22:21:48.065Z,4.60
2018-04-08T22:24:16.503Z,4.67
2018-04-08T22:26:44.906Z,4.80
2018-04-08T22:29:13.357Z,5.03
2018-04-08T22:31:41.737Z,4.70
2018-04-08T22:34:10.176Z,4.87
2018-04-08T22:36:38.571Z,4.70
2018-04-08T22:39:07.013Z,5.10
2018-04-08T22:41:35.478Z,4.03
2018-04-08T22:44:03.970Z,4.67
2018-04-08T22:46:32.404Z,4.33
2018-04-08T22:49:00.833Z,4.30
2018-04-08T22:51:29.242Z,4.63
2018-04-08T22:53:57.699Z,4.10
2018-04-08T22:56:26.082Z,5.03
2018-04-08T22:58:54.508Z,4.57
2018-04-08T23:01:22.957Z,4.27
2018-04-08T23:03:51.383Z,4.60
2018-04-08T23:06:19.804Z,4.83
2018-04-08T23:08:48.235Z,4.33
2018-04-08T23:11:16.662Z,4.40
2018-04-08T23:13:45.061Z,4.17
2018-04-08T23:16:13.501Z,4.77
2018-04-08T23:18:41.995Z,5.23
2018-04-08T23:21:10.402Z,5.70
2018-04-08T23:23:38.872Z,4.57
2018-04-08T23:26:07.279Z,5.10
2018-04-08T23:28:35.694Z,5.03
2018-04-08T23:31:04.150Z,4.80
2018-04-08T23:33:32.541Z,6.03
2018-04-08T23:36:00.965Z,5.80
2018-04-08T23:38:29.410Z,4.93
2018-04-08T23:40:57.805Z,6.50
2018-04-08T23:43:26.223Z,6.40
2018-04-08T23:45:54.633Z,4.70
2018-04-08T23:48:23.096Z,5.83
2018-04-08T23:50:51.480Z,5.13
2018-04-08T23:53:19.931Z,6.07
2018-04-08T23:55:48.316Z,5.47
2018-04-08T23:58:16.761Z,5.67
